Tiempo atmosférico en la estación meteorológica de Barcena de Cicero, Treto, Cantabria (10 m.)



Fecha
DESCASC
Temp. máxima en grados centígrados (hora)
DESCASC
Temp. mínima en grados centígrados (hora)
DESCASC
Temp. media en grados centígrados
DESCASC
Racha de viento máxima en m/sg (hora)
DESCASC
Velocidad máxima media en intervalos de 10 minutos(hora)
DESCASC
Precipitaciones diarias en mm
DESCASC
Precipitaciones de 00:00 a 06:00 en mm
DESCASC
Precipitaciones de 06:00 a 12:00 en mm
DESCASC
Precipitaciones de 12:00 a 18:00 en mm
DESCASC
Precipitaciones de 18:00 a 24:00 en mm
DESCASC
21-02-2019 17.6 (14:50) 2.2 (08:00) 9.9 5.28 (22:40) 3.33 (22:20) 0 0 0 0 0
20-02-2019 14 (13:10) 2.7 (08:00) 8.4 4.72 (14:10) 2.78 (14:10) 0 0 0 0 0
19-02-2019 12.4 (14:30) 5.5 (23:59) 8.9 7.22 (16:10) 5 (17:10) 2.4 1.8 0.6 0 0
18-02-2019 14.6 (12:40) 5 (03:00) 9.8 8.89 (21:50) 4.44 (21:30) 1.4 0 0 0 1.4
17-02-2019 21.1 (12:30) 6.2 (00:00) 13.7 7.22 (05:10) 3.89 (05:10) 0 0 0 0 0
16-02-2019 21 (14:40) 4.7 (00:00) 12.8 8.33 (14:50) 4.72 (15:00) 0 0 0 0 0
15-02-2019 21 (13:10) 6.2 (00:00) 13.6 7.22 (02:50) 3.61 (01:20) 0 0 0 0 0
14-02-2019 20.7 (15:20) 1.6 (00:00) 11.2 8.61 (13:20) 4.72 (13:30) 0 0 0 0 0
13-02-2019 13 (16:10) 1.2 (00:00) 7.1 5.56 (09:00) 3.33 (01:20) 0 0 0 0 0
12-02-2019 13.1 (12:50) 3 (00:00) 8.1 10.28 (15:30) 7.5 (16:00) 0 0 0 0 0
11-02-2019 11.4 (13:40) 5.6 (00:00) 8.5 8.33 (11:40) 4.44 (11:40) 4.4 0.4 3 1 0
10-02-2019 17.7 (08:50) 8.7 (00:00) 13.2 14.72 (09:00) 7.22 (09:40) 6.4 0 4.2 2.2 0
09-02-2019 17.6 (13:50) 5.2 (00:00) 11.4 7.22 (15:40) 3.89 (20:00) 0 0 0 0 0
08-02-2019 13.3 (14:10) 2.8 (00:00) 8.1 6.11 (04:40) 3.33 (18:30) 0 0 0 0 0
07-02-2019 13.1 (16:40) 5.4 (00:00) 9.3 7.22 (09:30) 3.33 (01:10) 0.4 0 0.4 0 0
06-02-2019 14.6 (14:10) 4.3 (00:00) 9.5 5.28 (01:30) 2.78 (01:20) 0 0 0 0 0
05-02-2019 -- (--) -- (--) -- -- (--) -- (--) 0 0 0 0 0
04-02-2019 13.7 (16:20) 0.9 (00:00) 7.3 7.78 (16:20) 4.17 (11:50) 0.2 0 0 0 0.2
03-02-2019 10.6 (15:10) 3.2 (00:00) 6.9 12.22 (02:10) 4.44 (02:10) 0.4 0.2 0.2 0 0
02-02-2019 10.3 (11:50) 6.5 (00:00) 8.4 18.61 (04:20) 8.89 (02:50) 3.2 3 0 0.2 0
01-02-2019 -- (--) -- (--) -- -- (--) -- (--) 0.4 0.4 0 0 0
31-01-2019 15.6 (15:10) 8.8 (00:00) 12.2 11.11 (17:30) 5.83 (17:30) -- -- -- 2 0.2
30-01-2019 12.1 (15:20) 6 (00:00) 9.1 11.94 (01:50) 5.83 (08:50) -- -- -- -- --
29-01-2019 11.9 (15:00) 6.8 (00:00) 9.3 20.83 (16:30) 8.61 (15:10) -- -- -- -- --
28-01-2019 12 (11:50) 8 (00:00) 10 17.78 (06:30) 9.17 (12:10) -- -- -- -- --
27-01-2019 11.4 (14:20) 7.2 (00:00) 9.3 18.61 (04:10) 10 (08:40) -- -- -- -- --
26-01-2019 13.6 (13:40) 8.1 (00:00) 10.9 5.28 (23:59) 3.06 (18:00) 0 0 0 0 0
25-01-2019 12.9 (14:20) 10.6 (00:00) 11.8 11.94 (01:40) 5.28 (01:50) 2.2 0.6 1.4 0.2 0
24-01-2019 11.5 (23:50) 8.5 (00:00) 10 8.61 (00:10) 4.72 (22:50) 29.4 7.4 14.8 6.6 0.6

Gráficas

Temp. máximas Temp. mínimas Temp. medias Precipitaciones Rachas de viento máximas Velocidades máximas media en intervalos de 10 minutos

Datos horarios

Fecha y hora oficial Temperatura (ºC) Velocidad del viento (km/h) Dirección del viento Racha (km/h) Dirección de racha Precipitación (mm) Presión (hPa) Tendencia (hPa) Humedad (%)
2019-02-22 23:00:00 7.4 4 Sur 11 Sur 0 -- -- 88
2019-02-22 22:00:00 8.4 3 Sur 9 Sur 0 -- -- 84
2019-02-22 21:00:00 9.8 4 Sudeste 11 Sur 0 -- -- 78
2019-02-22 20:00:00 10.9 3 Sur 11 Sur 0 -- -- 74
2019-02-22 19:00:00 13.9 3 Oeste 8 Noroeste 0 -- -- 62
2019-02-22 18:00:00 16.9 3 Norte 10 Nordeste 0 -- -- 51
2019-02-22 17:00:00 17.3 5 Norte 14 Nordeste 0 -- -- 53
2019-02-22 16:00:00 17.3 8 Nordeste 12 Nordeste 0 -- -- 58
2019-02-22 15:00:00 19.1 5 Nordeste 14 Nordeste 0 -- -- 48
2019-02-22 14:00:00 18.3 7 Nordeste 12 Nordeste 0 -- -- 50
2019-02-22 13:00:00 18.6 6 Nordeste 10 Nordeste 0 -- -- 49
2019-02-22 12:00:00 17.5 5 Sur 17 Sudeste 0 -- -- 52
2019-02-22 11:00:00 13.8 7 Sur 16 Sur 0 -- -- 64
2019-02-22 10:00:00 10 8 Sur 14 Sur 0 -- -- 72
2019-02-22 09:00:00 7.3 7 Sur 21 Sur 0 -- -- 79
2019-02-22 08:00:00 5.4 8 Sur 12 Sur 0 -- -- 89
2019-02-22 07:00:00 5.5 7 Sur 13 Sur 0 -- -- 88
2019-02-22 06:00:00 5.3 7 Sur 13 Sur 0 -- -- 87
2019-02-22 05:00:00 6.3 9 Sur 15 Sur 0 -- -- 80
2019-02-22 04:00:00 7.1 5 Sur 14 Sur 0 -- -- 78
2019-02-22 03:00:00 7.7 4 Sur 18 Sur 0 -- -- 75
2019-02-22 02:00:00 8.5 9 Sur 18 Sur 0 -- -- 72
2019-02-22 01:00:00 9.7 12 Sur 21 Sur 0 -- -- 71
2019-02-22 00:00:00 8.3 8 Sur 15 Sur 0 -- -- 80
2019-02-21 23:00:00 8.6 10 Sur 19 Sur 0 -- -- 81
2019-02-21 22:00:00 8.5 8 Sur 13 Sur 0 -- -- 85
2019-02-21 21:00:00 8.9 8 Sur 13 Sur 0 -- -- 85
2019-02-21 20:00:00 10 5 Sur 10 Sudeste 0 -- -- 82
2019-02-21 19:00:00 12.7 2 Oeste 8 Nordeste 0 -- -- 74
2019-02-21 18:00:00 15.6 5 Nordeste 13 Nordeste 0 -- -- 64
2019-02-21 17:00:00 16.8 6 Nordeste 11 Nordeste 0 -- -- 58
2019-02-21 16:00:00 17.5 5 Norte 13 Nordeste 0 -- -- 50
2019-02-21 15:00:00 17.5 6 Nordeste 11 Nordeste 0 -- -- 51
2019-02-21 14:00:00 16.9 5 Nordeste 10 Norte 0 -- -- 51
2019-02-21 13:00:00 15.8 5 Nordeste 9 Nordeste 0 -- -- 55
2019-02-21 12:00:00 14.2 3 Este 6 Sudeste 0 -- -- 60
2019-02-21 11:00:00 10.7 4 Sur 8 Sudeste 0 -- -- 78
2019-02-21 10:00:00 6.4 3 Sur 10 Sur 0 -- -- 95
2019-02-21 09:00:00 2.9 5 Sur 10 Sur 0 -- -- 98
2019-02-21 08:00:00 2.2 4 Sur 10 Sur 0 -- -- 98
2019-02-21 07:00:00 2.5 5 Sur 10 Sudeste 0 -- -- 98
2019-02-21 06:00:00 3 6 Sur 13 Sur 0 -- -- 98
2019-02-21 05:00:00 3.7 6 Sur 13 Sur 0 -- -- 99
2019-02-21 04:00:00 3.8 7 Sur 12 Sur 0 -- -- 99
2019-02-21 03:00:00 4.2 2 Sur 8 Sur 0 -- -- 99
2019-02-21 02:00:00 4.9 3 Sudeste 13 Sur 0 -- -- 98
2019-02-21 01:00:00 4.6 3 Sur 10 Sur 0 -- -- 99
2019-02-21 00:00:00 4.4 2 Sudeste 6 Sudeste 0 -- -- 98
2019-02-20 23:00:00 5.8 0 Calma 8 Sudeste 0 -- -- 97
2019-02-20 22:00:00 7.2 5 Sur 11 Sur 0 -- -- 97
2019-02-20 21:00:00 8 6 Sur 10 Sur 0 -- -- 96
2019-02-20 20:00:00 9.5 0 Calma 7 Noroeste 0 -- -- 93
2019-02-20 19:00:00 11.7 5 Noroeste 10 Este 0 -- -- 90
2019-02-20 18:00:00 12.7 5 Nordeste 12 Norte 0 -- -- 86
2019-02-20 17:00:00 13.4 6 Nordeste 14 Nordeste 0 -- -- 83
2019-02-20 16:00:00 13.6 6 Nordeste 15 Nordeste 0 -- -- 82
2019-02-20 15:00:00 13.6 8 Nordeste 17 Nordeste 0 -- -- 82
2019-02-20 14:00:00 13.8 9 Nordeste 15 Nordeste 0 -- -- 80
2019-02-20 13:00:00 13.8 7 Nordeste 13 Este 0 -- -- 77
2019-02-20 12:00:00 12.9 8 Nordeste 10 Nordeste 0 -- -- 84
2019-02-20 11:00:00 11.6 4 Sudeste 6 Sudeste 0 -- -- 98
2019-02-20 10:00:00 7.9 4 Sudeste 7 Sudeste 0 -- -- 100
2019-02-20 09:00:00 4.1 2 Sudeste 8 Sudeste 0 -- -- 100
2019-02-20 08:00:00 2.7 0 Calma 6 Noroeste 0 -- -- 100
2019-02-20 07:00:00 3.3 0 Calma 8 Noroeste 0 -- -- 100
2019-02-20 06:00:00 3.4 2 Noroeste 5 Noroeste 0 -- -- 100
2019-02-20 05:00:00 3.7 0 Calma 7 Sudeste 0 -- -- 99
2019-02-20 04:00:00 4.5 2 Sudoeste 10 Oeste 0 -- -- 100
2019-02-20 03:00:00 4.6 5 Sudeste 12 Sur 0 -- -- 100
2019-02-20 02:00:00 5.1 8 Sur 14 Sur 0 -- -- 100
2019-02-20 01:00:00 4.9 0 Calma 7 Sur 0 -- -- 98
2019-02-20 00:00:00 5.5 3 Sur 9 Sudoeste 0 -- -- 99
2019-02-19 23:00:00 6 0 Calma 10 Sudeste 0 -- -- 97
2019-02-19 22:00:00 6.8 6 Sur 10 Sur 0 -- -- 97
2019-02-19 21:00:00 7.1 4 Sudeste 6 Sur 0 -- -- 94
2019-02-19 20:00:00 8.9 3 Oeste 10 Este 0 -- -- 91
2019-02-19 19:00:00 10.2 6 Este 19 Este 0 -- -- 88
2019-02-19 18:00:00 11.1 13 Este 23 Nordeste 0 -- -- 86
2019-02-19 17:00:00 11.6 17 Este 26 Este 0 -- -- 80
2019-02-19 16:00:00 11.5 17 Este 24 Nordeste 0 -- -- 80
2019-02-19 15:00:00 11.8 15 Nordeste 21 Este 0 -- -- 78
2019-02-19 14:00:00 11.7 9 Nordeste 17 Nordeste 0 -- -- 79
2019-02-19 13:00:00 11.3 8 Sudeste 12 Sudeste 0 -- -- 84
2019-02-19 12:00:00 9.4 5 Sur 10 Sur 0 -- -- 97
2019-02-19 11:00:00 8.4 6 Sur 12 Sur 0 -- -- 98
2019-02-19 10:00:00 8 7 Sur 12 Sur 0.2 -- -- 99
2019-02-19 09:00:00 7.8 4 Sur 6 Sur 0.2 -- -- 98
2019-02-19 08:00:00 7.8 2 Noroeste 5 Noroeste 0.2 -- -- 96
2019-02-19 07:00:00 8 2 Noroeste 6 Sur 0 -- -- 95
2019-02-19 06:00:00 8 5 Sur 8 Sur 0 -- -- 95
2019-02-19 05:00:00 7.9 5 Sudoeste 10 Sudoeste 0 -- -- 95
2019-02-19 04:00:00 7.9 5 Sudoeste 14 Oeste 0 -- -- 97
2019-02-19 03:00:00 8 9 Oeste 21 Oeste 0.4 -- -- 97
2019-02-19 02:00:00 8.8 4 Noroeste 9 Noroeste 1 -- -- 98
2019-02-19 01:00:00 8.9 4 Oeste 14 Noroeste 0.4 -- -- 97
2019-02-19 00:00:00 9.2 7 Noroeste 14 Noroeste 0.6 -- -- 96
2019-02-18 23:00:00 9.5 9 Noroeste 21 Noroeste 0 -- -- 95
2019-02-18 22:00:00 9.7 11 Noroeste 32 Oeste 0.4 -- -- 95
2019-02-18 21:00:00 11 4 Sudoeste 8 Sudoeste 0.2 -- -- 95
2019-02-18 20:00:00 11.3 4 Noroeste 10 Noroeste 0.2 -- -- 94
2019-02-18 19:00:00 12 4 Noroeste 10 Norte 0 -- -- 88
2019-02-18 18:00:00 12.6 6 Norte 13 Norte 0 -- -- 83
2019-02-18 17:00:00 12.9 5 Norte 14 Norte 0 -- -- 82
2019-02-18 16:00:00 12.9 8 Norte 16 Norte 0 -- -- 82
2019-02-18 15:00:00 13.5 6 Nordeste 10 Nordeste 0 -- -- 70
2019-02-18 14:00:00 13.7 6 Nordeste 14 Nordeste 0 -- -- 67
2019-02-18 13:00:00 14.2 7 Nordeste 12 Nordeste 0 -- -- 62
2019-02-18 12:00:00 13.8 3 Nordeste 9 Nordeste 0 -- -- 68
2019-02-18 11:00:00 11 6 Sudeste 13 Sudeste 0 -- -- 79
2019-02-18 10:00:00 8.4 8 Sudeste 12 Sur 0 -- -- 93
2019-02-18 09:00:00 6.6 6 Sur 11 Sur 0 -- -- 92
2019-02-18 08:00:00 6 5 Sur 9 Sudeste 0 -- -- 89
2019-02-18 07:00:00 6.1 5 Sudeste 9 Sudeste 0 -- -- 86
2019-02-18 06:00:00 6.4 6 Sudeste 12 Sudeste 0 -- -- 87
2019-02-18 05:00:00 5.4 0 Calma 6 Nordeste 0 -- -- 83
2019-02-18 04:00:00 5.8 2 Sur 8 Sudeste 0 -- -- 78
2019-02-18 03:00:00 5 2 Sur 9 Sur 0 -- -- 72
2019-02-18 02:00:00 6 3 Sur 8 Sur 0 -- -- 65
2019-02-18 01:00:00 7.1 3 Norte 12 Sudeste 0 -- -- 58
2019-02-18 00:00:00 9.7 4 Oeste 20 Sur 0 -- -- 47
2019-02-17 23:00:00 10.3 11 Sudeste 22 Sur 0 -- -- 46
2019-02-17 22:00:00 10.5 6 Sur 17 Sur 0 -- -- 48
2019-02-17 21:00:00 11.9 10 Sur 17 Sudeste 0 -- -- 43
2019-02-17 20:00:00 13.6 8 Sur 18 Sudeste 0 -- -- 39
2019-02-17 19:00:00 15.6 7 Sur 18 Sur 0 -- -- 33
2019-02-17 18:00:00 18.8 8 Sur 20 Sudeste 0 -- -- 26
2019-02-17 17:00:00 19.3 7 Sudeste 20 Sudeste 0 -- -- 30
2019-02-17 16:00:00 19.7 9 Sudeste 25 Sudeste 0 -- -- 29
2019-02-17 15:00:00 20.6 14 Sudeste 21 Sur 0 -- -- 29
2019-02-17 14:00:00 20.5 10 Sudeste 25 Sudeste 0 -- -- 32
2019-02-17 13:00:00 20.3 13 Sudeste 25 Sudeste 0 -- -- 28
2019-02-17 12:00:00 20.3 10 Sur 24 Sur 0 -- -- 27
2019-02-17 11:00:00 17.9 4 Noroeste 17 Noroeste 0 -- -- 35
2019-02-17 10:00:00 13.5 5 Sur 17 Noroeste 0 -- -- 51
2019-02-17 09:00:00 7.3 6 Noroeste 13 Noroeste 0 -- -- 64
2019-02-17 08:00:00 6.6 6 Noroeste 12 Noroeste 0 -- -- 65
2019-02-17 07:00:00 7.6 7 Noroeste 13 Noroeste 0 -- -- 61
2019-02-17 06:00:00 12.8 7 Sur 26 Sur 0 -- -- 42
2019-02-17 05:00:00 14.4 13 Sur 23 Sur 0 -- -- 34
2019-02-17 04:00:00 8.6 4 Noroeste 10 Noroeste 0 -- -- 59
2019-02-17 03:00:00 10.2 4 Este 10 Noroeste 0 -- -- 52
2019-02-17 02:00:00 15.5 5 Oeste 20 Sudoeste 0 -- -- 29
2019-02-17 01:00:00 16.7 5 Sudoeste 25 Sur 0 -- -- 27
2019-02-17 00:00:00 16.8 14 Sur 29 Sur 0 -- -- 30
2019-02-16 23:00:00 16.4 12 Sur 29 Sur 0 -- -- 33
2019-02-16 22:00:00 16.2 7 Sudoeste 24 Sur 0 -- -- 36
2019-02-16 21:00:00 16.5 13 Sur 23 Sur 0 -- -- 40
2019-02-16 20:00:00 14.4 4 Sudeste 18 Sur 0 -- -- 51
2019-02-16 19:00:00 16.5 5 Sudeste 17 Sur 0 -- -- 43
2019-02-16 18:00:00 18.9 9 Sur 25 Sur 0 -- -- 36
2019-02-16 17:00:00 19.7 11 Sur 23 Sur 0 -- -- 33
2019-02-16 16:00:00 20.5 12 Sur 28 Sudeste 0 -- -- 32
2019-02-16 15:00:00 20.3 17 Sudeste 30 Sur 0 -- -- 31
2019-02-16 14:00:00 20.2 15 Sur 30 Sudeste 0 -- -- 34
2019-02-16 13:00:00 19.4 10 Sudeste 25 Sur 0 -- -- 35
2019-02-16 12:00:00 16.8 2 Nordeste 8 Noroeste 0 -- -- 40
2019-02-16 11:00:00 13.6 7 Sur 22 Sur 0 -- -- 61
2019-02-16 10:00:00 8.4 8 Sur 18 Sur 0 -- -- 79
2019-02-16 09:00:00 6.2 6 Sur 17 Sur 0 -- -- 87
2019-02-16 08:00:00 5.5 10 Sur 17 Sur 0 -- -- 89
2019-02-16 07:00:00 5.6 8 Sur 15 Sur 0 -- -- 89
2019-02-16 06:00:00 5.7 6 Sur 15 Sudeste 0 -- -- 90
2019-02-16 05:00:00 6.3 8 Sur 21 Sudoeste 0 -- -- 87
2019-02-16 04:00:00 5.6 7 Sur 14 Sur 0 -- -- 93
2019-02-16 03:00:00 6.4 9 Sur 16 Sur 0 -- -- 93
2019-02-16 02:00:00 6.5 9 Sur 12 Sur 0 -- -- 90
2019-02-16 01:00:00 6.3 7 Sur 12 Sur 0 -- -- 91
2019-02-16 00:00:00 6.6 6 Sur 11 Sur 0 -- -- 89
2019-02-15 23:00:00 6.9 6 Sur 13 Sur 0 -- -- 88
2019-02-15 22:00:00 7.3 5 Sur 8 Sur 0 -- -- 85
2019-02-15 21:00:00 8.1 0 Calma 7 Noroeste 0 -- -- 80
2019-02-15 20:00:00 9.8 5 Sur 7 Sur 0 -- -- 76
2019-02-15 19:00:00 12.1 4 Oeste 6 Oeste 0 -- -- 65
2019-02-15 18:00:00 15.6 0 Calma 6 Nordeste 0 -- -- 47
2019-02-15 17:00:00 17.1 5 Nordeste 8 Nordeste 0 -- -- 39
2019-02-15 16:00:00 17.6 5 Nordeste 10 Nordeste 0 -- -- 37
2019-02-15 15:00:00 17.8 6 Nordeste 11 Nordeste 0 -- -- 40
2019-02-15 14:00:00 19.5 5 Nordeste 11 Norte 0 -- -- 38
2019-02-15 13:00:00 20.7 6 Sudeste 14 Sur 0 -- -- 32
2019-02-15 12:00:00 18.5 8 Sur 16 Sudeste 0 -- -- 38
2019-02-15 11:00:00 15.3 11 Sur 19 Sudeste 0 -- -- 44
2019-02-15 10:00:00 11.3 12 Sur 21 Sur 0 -- -- 54
2019-02-15 09:00:00 8 10 Sur 19 Sudeste 0 -- -- 61
2019-02-15 08:00:00 7.5 10 Sur 17 Sur 0 -- -- 61
2019-02-15 07:00:00 6.7 10 Sur 15 Sur 0 -- -- 65
2019-02-15 06:00:00 7.1 8 Sur 15 Sur 0 -- -- 63
2019-02-15 05:00:00 6.2 3 Sudoeste 12 Sudeste 0 -- -- 65
2019-02-15 04:00:00 10.4 5 Sudoeste 25 Sudeste 0 -- -- 50
2019-02-15 03:00:00 12.9 9 Sur 26 Sur 0 -- -- 39
2019-02-15 02:00:00 11.9 12 Sur 22 Sur 0 -- -- 44
2019-02-15 01:00:00 10.7 10 Sur 20 Sur 0 -- -- 51
2019-02-15 00:00:00 10.8 9 Sur 21 Sudeste 0 -- -- 51
2019-02-14 23:00:00 12.8 9 Sur 21 Sur 0 -- -- 43
2019-02-14 22:00:00 12.6 8 Sur 15 Sur 0 -- -- 46
2019-02-14 21:00:00 15.1 9 Sur 23 Sur 0 -- -- 39
2019-02-14 20:00:00 14.8 13 Sudeste 23 Sur 0 -- -- 39
2019-02-14 19:00:00 15.9 13 Sur 25 Sudeste 0 -- -- 38
2019-02-14 18:00:00 17.7 12 Sur 23 Sudeste 0 -- -- 35
2019-02-14 17:00:00 19.4 12 Sur 21 Sur 0 -- -- 32
2019-02-14 16:00:00 20.7 8 Sudeste 20 Sudeste 0 -- -- 30
2019-02-14 15:00:00 20.4 12 Sudeste 26 Sudeste 0 -- -- 34
2019-02-14 14:00:00 19.2 15 Sudeste 31 Sudeste 0 -- -- 36
2019-02-14 13:00:00 18.8 14 Sudeste 24 Sudeste 0 -- -- 37
2019-02-14 12:00:00 17 7 Sudeste 14 Sudeste 0 -- -- 51
2019-02-14 11:00:00 12.5 5 Noroeste 7 Noroeste 0 -- -- 92
2019-02-14 10:00:00 7 4 Noroeste 7 Noroeste 0 -- -- 100
2019-02-14 09:00:00 2.3 0 Calma 8 Noroeste 0 -- -- 100
2019-02-14 08:00:00 1.6 2 Norte 8 Oeste 0 -- -- 98
2019-02-14 07:00:00 1.8 2 Noroeste 5 Sur 0 -- -- 100
2019-02-14 06:00:00 2.3 4 Noroeste 10 Sudoeste 0 -- -- 100
2019-02-14 05:00:00 2.3 3 Sudeste 9 Sudeste 0 -- -- 99
2019-02-14 04:00:00 2.6 0 Calma 8 Sur 0 -- -- 99
2019-02-14 03:00:00 3.1 0 Calma 8 Sudoeste 0 -- -- 98
2019-02-14 02:00:00 3.9 3 Sudeste 12 Sur 0 -- -- 97
2019-02-14 01:00:00 5.2 6 Sur 17 Sur 0 -- -- 99
2019-02-14 00:00:00 5.1 5 Sur 13 Sur 0 -- -- 98
2019-02-13 23:00:00 5.3 5 Sur 9 Sur 0 -- -- 97
2019-02-13 22:00:00 6 5 Sur 12 Sur 0 -- -- 97
2019-02-13 21:00:00 6.8 6 Sur 9 Sur 0 -- -- 95
2019-02-13 20:00:00 7.4 0 Calma 5 Norte 0 -- -- 92
2019-02-13 19:00:00 10 4 Noroeste 8 Norte 0 -- -- 87
2019-02-13 18:00:00 11.9 5 Nordeste 13 Nordeste 0 -- -- 81
2019-02-13 17:00:00 12.9 5 Nordeste 14 Nordeste 0 -- -- 72
2019-02-13 16:00:00 12.9 7 Nordeste 15 Nordeste 0 -- -- 74
2019-02-13 15:00:00 12.6 9 Nordeste 16 Nordeste 0 -- -- 67
2019-02-13 14:00:00 12.3 7 Este 12 Nordeste 0 -- -- 66
2019-02-13 13:00:00 11.8 6 Nordeste 10 Nordeste 0 -- -- 67
2019-02-13 12:00:00 10.5 3 Sudeste 7 Este 0 -- -- 71
2019-02-13 11:00:00 7.6 4 Sur 10 Sur 0 -- -- 91
2019-02-13 10:00:00 4 4 Sur 15 Sur 0 -- -- 99
2019-02-13 09:00:00 2.1 10 Sur 20 Sur 0 -- -- 99
2019-02-13 08:00:00 1.3 3 Sur 15 Sur 0 -- -- 98
2019-02-13 07:00:00 2 6 Sur 14 Sur 0 -- -- 98
2019-02-13 06:00:00 2.6 8 Sur 14 Sur 0 -- -- 99
2019-02-13 05:00:00 2.3 8 Sur 13 Sur 0 -- -- 98
2019-02-13 04:00:00 2.8 6 Sur 12 Sur 0 -- -- 97
2019-02-13 03:00:00 4 5 Sur 18 Sur 0 -- -- 96
2019-02-13 02:00:00 3.9 11 Sur 16 Sur 0 -- -- 98
2019-02-13 01:00:00 3.9 8 Sur 12 Sur 0 -- -- 97
2019-02-13 00:00:00 4.6 7 Sur 11 Sur 0 -- -- 96
2019-02-12 23:00:00 4.5 5 Sur 11 Sur 0 -- -- 96
2019-02-12 22:00:00 4.4 5 Sudeste 7 Sudeste 0 -- -- 93
2019-02-12 21:00:00 5.7 0 Calma 8 Noroeste 0 -- -- 86
2019-02-12 20:00:00 8.1 3 Sudeste 14 Este 0 -- -- 78
2019-02-12 19:00:00 9.3 8 Este 23 Este 0 -- -- 74
2019-02-12 18:00:00 11 19 Este 30 Este 0 -- -- 68
2019-02-12 17:00:00 11.4 26 Este 35 Este 0 -- -- 63
2019-02-12 16:00:00 11.9 27 Este 37 Este 0 -- -- 61
2019-02-12 15:00:00 11.9 22 Este 33 Nordeste 0 -- -- 64
2019-02-12 14:00:00 12.3 21 Este 30 Este 0 -- -- 60
2019-02-12 13:00:00 12.8 14 Este 23 Este 0 -- -- 61
2019-02-12 12:00:00 11.6 3 Nordeste 12 Sudeste 0 -- -- 70
2019-02-12 11:00:00 8.5 9 Sur 16 Sudeste 0 -- -- 86
2019-02-12 10:00:00 5.2 6 Sur 12 Sur 0 -- -- 96
2019-02-12 09:00:00 3.8 2 Noroeste 12 Sur 0 -- -- 97
2019-02-12 08:00:00 3.8 9 Sur 16 Sudeste 0 -- -- 97
2019-02-12 07:00:00 3.8 9 Sur 19 Sur 0 -- -- 98
2019-02-12 06:00:00 3.9 13 Sur 22 Sudeste 0 -- -- 99
2019-02-12 05:00:00 3.1 5 Sur 10 Sur 0 -- -- 98
2019-02-12 04:00:00 4.1 8 Sur 17 Sur 0 -- -- 98
2019-02-12 03:00:00 4.9 9 Sur 17 Sur 0 -- -- 97
2019-02-12 02:00:00 5.7 10 Sur 16 Sudeste 0 -- -- 98
2019-02-12 01:00:00 4.9 7 Sur 13 Sur 0 -- -- 97
2019-02-12 00:00:00 6 9 Sur 13 Sur 0 -- -- 97
2019-02-11 23:00:00 6.4 5 Sur 14 Sur 0 -- -- 95
2019-02-11 22:00:00 6.6 4 Sudoeste 11 Sur 0 -- -- 96
2019-02-11 21:00:00 7 6 Sur 10 Sur 0 -- -- 95
2019-02-11 20:00:00 7.9 7 Sur 10 Sur 0 -- -- 93
2019-02-11 19:00:00 8 5 Sudeste 10 Sudeste 0 -- -- 90
2019-02-11 18:00:00 9.8 3 Noroeste 12 Noroeste 0 -- -- 80
2019-02-11 17:00:00 10.7 6 Oeste 23 Noroeste 0 -- -- 78
2019-02-11 16:00:00 11.4 6 Noroeste 12 Oeste 0 -- -- 76
2019-02-11 15:00:00 10.7 4 Sur 12 Sudoeste 0.4 -- -- 85
2019-02-11 14:00:00 10.8 7 Oeste 20 Sudoeste 0.4 -- -- 79
2019-02-11 13:00:00 10.5 12 Oeste 23 Oeste 0.2 -- -- 76
2019-02-11 12:00:00 10.1 8 Oeste 30 Oeste 0 -- -- 76
2019-02-11 11:00:00 10.1 4 Sudoeste 10 Nordeste 0 -- -- 91
2019-02-11 10:00:00 8.3 3 Sudeste 18 Sudoeste 0.4 -- -- 93
2019-02-11 09:00:00 8.1 8 Sudoeste 20 Sudoeste 1.2 -- -- 91
2019-02-11 08:00:00 7.8 4 Noroeste 14 Sudoeste 1.2 -- -- 88
2019-02-11 07:00:00 7.5 3 Sudoeste 6 Sudoeste 0.2 -- -- 91
2019-02-11 06:00:00 7.9 2 Sur 17 Sudoeste 0 -- -- 88
2019-02-11 05:00:00 7.8 3 Sur 19 Norte 0.4 -- -- 85
2019-02-11 04:00:00 8.2 7 Oeste 20 Oeste 0 -- -- 79
2019-02-11 03:00:00 8.7 7 Oeste 19 Oeste 0 -- -- 74
2019-02-11 02:00:00 8.7 6 Oeste 18 Oeste 0 -- -- 75
2019-02-11 01:00:00 8.8 9 Oeste 20 Sudoeste 0 -- -- 75
2019-02-11 00:00:00 8.9 8 Oeste 17 Sudoeste 0 -- -- 76
2019-02-10 23:00:00 8.9 4 Oeste 18 Sudoeste 0 -- -- 78
2019-02-10 22:00:00 9.4 6 Oeste 19 Oeste 0 -- -- 78
2019-02-10 21:00:00 9.8 8 Oeste 19 Oeste 0 -- -- 77
2019-02-10 20:00:00 10.1 6 Oeste 16 Oeste 0 -- -- 78
2019-02-10 19:00:00 10.3 6 Sudoeste 19 Sudoeste 0 -- -- 77
2019-02-10 18:00:00 10.7 8 Sudoeste 17 Oeste 0 -- -- 74
2019-02-10 17:00:00 11.1 9 Oeste 19 Noroeste 0 -- -- 71
2019-02-10 16:00:00 10.7 10 Oeste 26 Sudoeste 0 -- -- 78
2019-02-10 15:00:00 10.7 9 Oeste 27 Noroeste 0.6 -- -- 83
2019-02-10 14:00:00 11.2 14 Oeste 33 Oeste 0.4 -- -- 87
2019-02-10 13:00:00 10.8 13 Oeste 27 Norte 1.2 -- -- 91
2019-02-10 12:00:00 10.6 7 Sudoeste 24 Sudoeste 0.8 -- -- 91
2019-02-10 11:00:00 11 13 Sudoeste 42 Noroeste 0 -- -- 84
2019-02-10 10:00:00 10.8 21 Noroeste 50 Oeste 3.4 -- -- 89
2019-02-10 09:00:00 17.1 18 Oeste 53 Oeste 0 -- -- 49
2019-02-10 08:00:00 16.9 14 Sudoeste 39 Sudoeste 0 -- -- 44
2019-02-10 07:00:00 16.4 13 Sur 38 Oeste 0 -- -- 46
2019-02-10 06:00:00 13.3 6 Sudeste 13 Este 0 -- -- 57
2019-02-10 05:00:00 12.3 4 Oeste 15 Sur 0 -- -- 61
2019-02-10 04:00:00 12.4 4 Noroeste 16 Sudeste 0 -- -- 57
2019-02-10 03:00:00 13.6 6 Sur 23 Sur 0 -- -- 52
2019-02-10 02:00:00 12.9 7 Sudoeste 22 Sur 0 -- -- 53
2019-02-10 01:00:00 9.3 5 Sur 10 Sudeste 0 -- -- 72
2019-02-10 00:00:00 10.2 3 Oeste 12 Este 0 -- -- 65
2019-02-09 23:00:00 13.2 3 Sur 14 Sur 0 -- -- 52
2019-02-09 22:00:00 14.9 7 Sur 24 Sudoeste 0 -- -- 47
2019-02-09 21:00:00 15.8 8 Sur 23 Sudoeste 0 -- -- 45
2019-02-09 20:00:00 16.4 14 Sudoeste 26 Sudoeste 0 -- -- 41
2019-02-09 19:00:00 15.2 8 Sur 25 Sudeste 0 -- -- 52
2019-02-09 18:00:00 14.6 2 Sudoeste 15 Sur 0 -- -- 63
2019-02-09 17:00:00 15.9 11 Sur 24 Sudeste 0 -- -- 53
2019-02-09 16:00:00 16 11 Sudeste 26 Sudeste 0 -- -- 58
2019-02-09 15:00:00 17.1 10 Sur 22 Sur 0 -- -- 56
2019-02-09 14:00:00 17.5 10 Sur 18 Sudeste 0 -- -- 54
2019-02-09 13:00:00 15.8 3 Oeste 13 Este 0 -- -- 64
2019-02-09 12:00:00 13.6 0 Calma 6 Este 0 -- -- 75
2019-02-09 11:00:00 10.3 3 Noroeste 6 Noroeste 0 -- -- 82
2019-02-09 10:00:00 7.4 5 Sudoeste 14 Sur 0 -- -- 91
2019-02-09 09:00:00 6.2 7 Sur 16 Sur 0 -- -- 94
2019-02-09 08:00:00 5.3 6 Sur 11 Sur 0 -- -- 95
2019-02-09 07:00:00 5.8 3 Sur 11 Sur 0 -- -- 93
2019-02-09 06:00:00 5.9 2 Sudeste 9 Sur 0 -- -- 90
2019-02-09 05:00:00 7.4 3 Sudoeste 10 Sur 0 -- -- 90
2019-02-09 04:00:00 8 0 Calma 14 Sur 0 -- -- 84
2019-02-09 03:00:00 7.8 6 Sur 19 Sur 0 -- -- 86
2019-02-09 02:00:00 6.4 8 Sur 13 Sur 0 -- -- 92
2019-02-09 01:00:00 6 5 Sudoeste 13 Sudeste 0 -- -- 91
2019-02-09 00:00:00 7 3 Sudoeste 14 Sur 0 -- -- 89
2019-02-08 23:00:00 7.6 8 Sudoeste 14 Sur 0 -- -- 88
2019-02-08 22:00:00 7.9 5 Sur 12 Sur 0 -- -- 89
2019-02-08 21:00:00 8.6 5 Sur 14 Sur 0 -- -- 89
2019-02-08 20:00:00 9.7 5 Noroeste 9 Noroeste 0 -- -- 85
2019-02-08 19:00:00 11.6 6 Sur 19 Sudeste 0 -- -- 78
2019-02-08 18:00:00 11.9 8 Sudeste 18 Sudeste 0 -- -- 77
2019-02-08 17:00:00 12.5 3 Sudeste 12 Norte 0 -- -- 72
2019-02-08 16:00:00 13 7 Nordeste 15 Norte 0 -- -- 66
2019-02-08 15:00:00 13.1 7 Nordeste 16 Este 0 -- -- 70
2019-02-08 14:00:00 13.2 9 Nordeste 17 Nordeste 0 -- -- 73
2019-02-08 13:00:00 12.7 8 Nordeste 12 Nordeste 0 -- -- 74
2019-02-08 12:00:00 11.2 4 Este 8 Sur 0 -- -- 77
2019-02-08 11:00:00 8 5 Sur 11 Sudeste 0 -- -- 94
2019-02-08 10:00:00 5.5 5 Sur 10 Sudeste 0 -- -- 100
2019-02-08 09:00:00 3.4 6 Sur 9 Sur 0 -- -- 99
2019-02-08 08:00:00 3.2 3 Sur 13 Sudeste 0 -- -- 98
2019-02-08 07:00:00 4 9 Sur 15 Sur 0 -- -- 99
2019-02-08 06:00:00 3.9 3 Oeste 17 Sudeste 0 -- -- 98
2019-02-08 05:00:00 3.8 8 Sur 22 Sur 0 -- -- 99
2019-02-08 04:00:00 3.8 4 Sur 11 Sur 0 -- -- 98
2019-02-08 03:00:00 3.9 6 Sur 12 Sur 0 -- -- 98
2019-02-08 02:00:00 4.4 6 Sur 10 Sur 0 -- -- 97
2019-02-08 01:00:00 4.5 7 Sur 9 Sur 0 -- -- 97
2019-02-08 00:00:00 5.4 0 Calma 9 Sur 0 -- -- 96
2019-02-07 23:00:00 6 5 Sur 9 Sur 0 -- -- 95
2019-02-07 22:00:00 7 6 Sur 12 Sudeste 0 -- -- 93
2019-02-07 21:00:00 8.2 4 Sur 9 Sur 0 -- -- 89
2019-02-07 20:00:00 9.4 0 Calma 3 Sur 0 -- -- 87
2019-02-07 19:00:00 10.4 3 Sur 6 Sudoeste 0 -- -- 78
2019-02-07 18:00:00 11.7 3 Oeste 7 Oeste 0 -- -- 74
2019-02-07 17:00:00 12.7 4 Oeste 15 Sudoeste 0 -- -- 69
2019-02-07 16:00:00 12.6 8 Oeste 17 Oeste 0 -- -- 72
2019-02-07 15:00:00 12.3 7 Oeste 18 Oeste 0 -- -- 77
2019-02-07 14:00:00 11.9 9 Oeste 17 Oeste 0 -- -- 79
2019-02-07 13:00:00 10.7 9 Noroeste 18 Noroeste 0 -- -- 84
2019-02-07 12:00:00 11.8 10 Oeste 18 Oeste 0 -- -- 83
2019-02-07 11:00:00 10.9 10 Oeste 21 Oeste 0 -- -- 88
2019-02-07 10:00:00 10.9 9 Noroeste 26 Noroeste 0.4 -- -- 93
2019-02-07 09:00:00 9.1 5 Sur 14 Sudoeste 0 -- -- 95
2019-02-07 08:00:00 8.5 8 Sur 15 Sur 0 -- -- 96
2019-02-07 07:00:00 7.6 9 Sur 15 Sur 0 -- -- 97
2019-02-07 06:00:00 7 4 Sur 14 Sudeste 0 -- -- 96
2019-02-07 05:00:00 8 7 Sur 15 Sur 0 -- -- 95
2019-02-07 04:00:00 7.9 9 Sur 14 Sur 0 -- -- 96
2019-02-07 03:00:00 8.4 6 Sur 18 Sur 0 -- -- 93
2019-02-07 02:00:00 9.4 9 Sur 19 Sur 0 -- -- 93
2019-02-07 01:00:00 9.2 10 Sur 17 Sur 0 -- -- 95
2019-02-07 00:00:00 9.1 6 Sur 12 Sur 0 -- -- 95
2019-02-06 23:00:00 10 3 Sur 10 Sudoeste 0 -- -- 93
2019-02-06 22:00:00 8.7 4 Oeste 10 Oeste 0 -- -- 96
2019-02-06 21:00:00 9 0 Calma 6 Noroeste 0 -- -- 93
2019-02-06 20:00:00 9.5 0 Calma 4 Noroeste 0 -- -- 91
2019-02-06 19:00:00 10.5 0 Calma 4 Noroeste 0 -- -- 86
2019-02-06 18:00:00 12.6 2 Nordeste 11 Norte 0 -- -- 76
2019-02-06 17:00:00 14.3 4 Nordeste 9 Nordeste 0 -- -- 77
2019-02-06 16:00:00 14.2 5 Nordeste 8 Este 0 -- -- 75
2019-02-06 15:00:00 13.8 4 Nordeste 12 Este 0 -- -- 75
2019-02-06 14:00:00 14.5 6 Nordeste 10 Este 0 -- -- 74
2019-02-06 13:00:00 13.1 5 Este 9 Nordeste 0 -- -- 78
2019-02-06 12:00:00 12.2 2 Sudeste 8 Sur 0 -- -- 82
2019-02-06 11:00:00 9.4 5 Sur 12 Sur 0 -- -- 97
2019-02-06 10:00:00 6.7 8 Sur 16 Sudeste 0 -- -- 100
2019-02-06 09:00:00 4.7 9 Sur 16 Sudeste 0 -- -- 100
2019-02-06 08:00:00 4.8 9 Sur 17 Sudeste 0 -- -- 100
2019-02-06 07:00:00 4.7 8 Sur 13 Sur 0 -- -- 100
2019-02-06 06:00:00 5.1 9 Sur 18 Sudeste 0 -- -- 99
2019-02-06 05:00:00 4.8 7 Sur 10 Sur 0 -- -- 98
2019-02-06 04:00:00 5.5 4 Sudoeste 12 Sur 0 -- -- 98
2019-02-06 03:00:00 5.7 6 Sur 9 Sudeste 0 -- -- 97
2019-02-06 02:00:00 6.7 5 Sur 19 Sur 0 -- -- 97
2019-02-06 01:00:00 6.4 7 Sur 10 Sur 0 -- -- 97
2019-02-06 00:00:00 6.9 5 Sur 9 Sur 0 -- -- 96
2019-02-05 23:00:00 7.6 3 Sur 9 Sur 0 -- -- 95
2019-02-05 22:00:00 8.1 0 Calma 5 Sudeste 0 -- -- 92
2019-02-05 21:00:00 9.2 0 Calma 4 Noroeste 0 -- -- 89
2019-02-05 20:00:00 11.6 0 Calma 2 Noroeste 0 -- -- 85
2019-02-05 19:00:00 13.1 0 Calma 2 Sudeste 0 -- -- 80
2019-02-05 18:00:00 14 2 Este 11 Noroeste 0 -- -- 74
2019-02-05 17:00:00 15 6 Nordeste 12 Noroeste 0 -- -- 70
2019-02-05 16:00:00 16 5 Norte 12 Noroeste 0 -- -- 66
2019-02-05 15:00:00 16.3 7 Norte 16 Noroeste 0 -- -- 64
2019-02-05 14:00:00 16.5 8 Oeste 15 Oeste 0 -- -- 64
2019-02-05 13:00:00 16.2 7 Noroeste 19 Noroeste -- -- -- 66
2019-02-05 12:00:00 15.8 8 Oeste 14 Oeste -- -- -- 66
2019-02-05 11:00:00 13 9 Sur -- -- -- -- -- 86
2019-02-05 10:00:00 10 6 Sur 12 Sur 0 -- -- 97
2019-02-05 09:00:00 8.9 6 Sur 13 Sur 0 -- -- 98
2019-02-05 08:00:00 8.8 8 Sur 13 Sur 0 -- -- 98
2019-02-05 07:00:00 8.8 7 Sur 12 Sur 0 -- -- 98
2019-02-05 06:00:00 9.2 8 Sur 13 Sur 0 -- -- 97
2019-02-05 05:00:00 9.4 4 Sur 10 Sudeste 0 -- -- 97
2019-02-05 04:00:00 9.4 6 Sur 13 Sudeste 0 -- -- 96
2019-02-05 03:00:00 10 5 Sur 14 Sur 0 -- -- 95
2019-02-05 02:00:00 10.1 9 Sur 17 Sur 0 -- -- 96
2019-02-05 01:00:00 10 7 Sur 13 Sur 0 -- -- 96
2019-02-05 00:00:00 10 2 Sudeste 11 Sudeste 0 -- -- 96
2019-02-04 23:00:00 10 7 Sur 15 Sur 0.2 -- -- 94
2019-02-04 22:00:00 10.4 2 Sur 9 Sur 0 -- -- 91
2019-02-04 21:00:00 10.7 6 Sur 11 Sur 0 -- -- 88
2019-02-04 20:00:00 10.7 6 Sur 10 Sur 0 -- -- 88
2019-02-04 19:00:00 11.3 3 Sudoeste 13 Sur 0 -- -- 82
2019-02-04 18:00:00 11.8 3 Sur 12 Noroeste 0 -- -- 82
2019-02-04 17:00:00 13.3 8 Norte 28 Oeste 0 -- -- 71
2019-02-04 16:00:00 13.5 2 Noroeste 21 Oeste 0 -- -- 66
2019-02-04 15:00:00 12.6 7 Sudoeste 16 Sur 0 -- -- 62
2019-02-04 14:00:00 11.3 4 Sur 18 Sur 0 -- -- 66
2019-02-04 13:00:00 10.4 12 Sur 23 Sur 0 -- -- 66
2019-02-04 12:00:00 8.2 13 Sudeste 22 Sudeste 0 -- -- 74
2019-02-04 11:00:00 6.2 9 Sur 17 Sur 0 -- -- 77
2019-02-04 10:00:00 3.4 12 Sur 24 Sur 0 -- -- 89
2019-02-04 09:00:00 1.4 8 Sur 19 Sur 0 -- -- 95
2019-02-04 08:00:00 0.9 10 Sur 15 Sur 0 -- -- 96
2019-02-04 07:00:00 0.9 9 Sur 14 Sur 0 -- -- 96
2019-02-04 06:00:00 1.3 5 Sur 15 Sudeste 0 -- -- 95
2019-02-04 05:00:00 1.5 8 Sur 14 Sur 0 -- -- 95
2019-02-04 04:00:00 1.6 8 Sur 14 Sur 0 -- -- 95
2019-02-04 03:00:00 2.1 8 Sur 22 Sur 0 -- -- 93
2019-02-04 02:00:00 2.3 10 Sur 19 Sur 0 -- -- 94
2019-02-04 01:00:00 2.6 10 Sur 18 Sur 0 -- -- 93
2019-02-04 00:00:00 3.2 8 Sur 20 Sudeste 0 -- -- 92
2019-02-03 23:00:00 3.6 11 Sur 21 Sur 0 -- -- 93
2019-02-03 22:00:00 4.1 6 Sur 13 Sudeste 0 -- -- 92
2019-02-03 21:00:00 4.6 6 Sur 12 Sur 0 -- -- 91
2019-02-03 20:00:00 5 6 Sur 9 Sur 0 -- -- 88
2019-02-03 19:00:00 6.9 5 Sur 13 Oeste 0 -- -- 78
2019-02-03 18:00:00 8.8 6 Oeste 12 Oeste 0 -- -- 72
2019-02-03 17:00:00 10.4 5 Noroeste 15 Noroeste 0 -- -- 66
2019-02-03 16:00:00 10.4 8 Noroeste 24 Norte 0 -- -- 64
2019-02-03 15:00:00 10.3 10 Norte 22 Noroeste 0 -- -- 67
2019-02-03 14:00:00 10.2 11 Norte 23 Noroeste 0 -- -- 66
2019-02-03 13:00:00 9.3 6 Sudoeste 17 Noroeste 0 -- -- 83
2019-02-03 12:00:00 7.2 11 Norte 36 Norte 0.2 -- -- 76
2019-02-03 11:00:00 8 7 Sudeste 13 Sudeste 0 -- -- 80
2019-02-03 10:00:00 6.4 5 Sudeste 17 Noroeste 0 -- -- 79
2019-02-03 09:00:00 5.7 7 Oeste 14 Oeste 0 -- -- 80
2019-02-03 08:00:00 6.4 13 Noroeste 43 Noroeste 0 -- -- 73
2019-02-03 07:00:00 6.4 6 Oeste 27 Norte 0 -- -- 76
2019-02-03 06:00:00 6.9 6 Noroeste 17 Noroeste 0 -- -- 67
2019-02-03 05:00:00 7 7 Noroeste 14 Norte 0 -- -- 67
2019-02-03 04:00:00 8.1 8 Noroeste 26 Norte 0 -- -- 63
2019-02-03 03:00:00 7.9 12 Norte 44 Norte 0.2 -- -- 58
2019-02-03 02:00:00 8.6 14 Norte 26 Noroeste 0 -- -- 54
2019-02-03 01:00:00 7.6 10 Norte 19 Noroeste 0 -- -- 69
2019-02-03 00:00:00 6.9 10 Noroeste 24 Norte 0 -- -- 68
2019-02-02 23:00:00 7.7 18 Norte 36 Norte 0 -- -- 67
2019-02-02 22:00:00 7.9 18 Noroeste 39 Norte 0 -- -- 70
2019-02-02 21:00:00 8.5 17 Norte 37 Noroeste 0 -- -- 63
2019-02-02 20:00:00 8 23 Noroeste 42 Oeste 0 -- -- 64
2019-02-02 19:00:00 8.1 18 Noroeste 35 Noroeste 0 -- -- 67
2019-02-02 18:00:00 9.2 20 Noroeste 39 Noroeste 0 -- -- 61
2019-02-02 17:00:00 8.2 17 Norte 47 Norte 0 -- -- 59
2019-02-02 16:00:00 7.1 9 Sudoeste 19 Oeste 0 -- -- 79
2019-02-02 15:00:00 7.6 14 Noroeste 41 Noroeste 0 -- -- 69
2019-02-02 14:00:00 7.1 12 Oeste 44 Oeste 0 -- -- 76
2019-02-02 13:00:00 6.7 18 Noroeste 50 Noroeste 0.2 -- -- 71
2019-02-02 12:00:00 10.2 20 Norte 45 Norte 0 -- -- 53
2019-02-02 11:00:00 8 17 Norte 65 Norte 0 -- -- 64
2019-02-02 10:00:00 8.1 22 Noroeste 59 Noroeste 0 -- -- 66
2019-02-02 09:00:00 8.5 28 Noroeste 52 Noroeste 0 -- -- 60
2019-02-02 08:00:00 8.1 23 Noroeste 42 Norte 0 -- -- 69
2019-02-02 07:00:00 8.1 25 Noroeste 53 Noroeste 0 -- -- 80
2019-02-02 06:00:00 7.4 24 Noroeste 56 Noroeste 0 -- -- 86
2019-02-02 05:00:00 8.1 22 Noroeste 67 Noroeste 0.8 -- -- 84
2019-02-02 04:00:00 8.5 27 Noroeste 50 Noroeste 0 -- -- 87
2019-02-02 03:00:00 7.9 25 Noroeste 52 Noroeste 0 -- -- 91
2019-02-02 02:00:00 7.2 10 Noroeste 31 Noroeste 2.2 -- -- 92
2019-02-02 01:00:00 7.9 13 Oeste 46 Oeste 0 -- -- 84
2019-02-02 00:00:00 7.1 7 Oeste 24 Oeste 0 -- -- 93
2019-02-01 23:00:00 5.8 9 Sur 19 Sudoeste 0 -- -- 92
2019-02-01 22:00:00 6.3 9 Sudoeste 26 Oeste 0 -- -- 89
2019-02-01 21:00:00 7.5 14 Oeste 38 Noroeste 0 -- -- 81
2019-02-01 20:00:00 8.8 5 Sudoeste 27 Noroeste 0 -- -- 72
2019-02-01 19:00:00 -- -- -- -- -- -- -- -- --
2019-02-01 18:00:00 9.9 9 Noroeste 24 Oeste 0 -- -- 68
2019-02-01 17:00:00 10.1 8 Sur 16 Sudoeste 0 -- -- 70
2019-02-01 16:00:00 8.4 10 Sur 45 Sudoeste 0 -- -- 78
2019-02-01 15:00:00 11 16 Sudoeste 29 Sudoeste 0 -- -- 58
2019-02-01 14:00:00 12.1 6 Sur 18 Sudoeste 0 -- -- 55
2019-02-01 13:00:00 12.1 4 Sudeste 21 Sudoeste 0 -- -- 66
2019-02-01 12:00:00 11.4 8 Sudoeste 32 Sudoeste -- -- -- 66
2019-02-01 11:00:00 10.2 3 Oeste 12 Nordeste 0 -- -- 74
2019-02-01 10:00:00 10.6 5 Sudoeste 22 Oeste 0 -- -- 65
2019-02-01 09:00:00 11.1 13 Oeste 37 Oeste 0 -- -- 56
2019-02-01 08:00:00 10.9 16 Sudoeste 38 Sudoeste 0 -- -- 62
2019-02-01 07:00:00 7.3 7 Sur 15 Sur 0 -- -- 100
2019-02-01 06:00:00 7.6 3 Sudoeste 7 Sur 0 -- -- 99
2019-02-01 05:00:00 8.6 2 Sudeste 13 Sur 0 -- -- 99
2019-02-01 04:00:00 9.4 6 Sudoeste 11 Sudoeste 0 -- -- 99
2019-02-01 03:00:00 9.6 4 Sur 10 Sur 0 -- -- 99
2019-02-01 02:00:00 9.9 7 Sur 10 Sur 0 -- -- 99
2019-02-01 01:00:00 10.1 4 Noroeste 14 Sudeste 0.4 -- -- 98
2019-02-01 00:00:00 10.1 8 Sur 12 Sur 0 -- -- 98
2019-01-31 23:00:00 10.2 6 Sur 13 Sudoeste 0 -- -- 97
2019-01-31 22:00:00 10.6 7 Sudoeste 15 Oeste 0 -- -- 95
2019-01-31 21:00:00 10.7 6 Sur 15 Sur 0 -- -- 93
2019-01-31 20:00:00 11.1 9 Sudoeste 25 Oeste 0 -- -- 91
2019-01-31 19:00:00 11.5 11 Oeste 24 Oeste 0.2 -- -- 92
2019-01-31 18:00:00 11.4 8 Sudoeste 40 Oeste 0 -- -- 92
2019-01-31 17:00:00 12.8 18 Noroeste 33 Norte 2 -- -- 91
2019-01-31 16:00:00 15.3 5 Noroeste 12 Norte 0 -- -- 86
2019-01-31 15:00:00 15.5 5 Nordeste 10 Nordeste 0 -- -- 80
2019-01-31 14:00:00 15 3 Noroeste 7 Noroeste 0 -- -- 85
2019-01-31 13:00:00 14.7 4 Noroeste 9 Sur 0 -- -- 85
2019-01-31 12:00:00 13.5 6 Sudoeste 14 Sudeste 0 -- -- 89
2019-01-31 11:00:00 12.5 8 Sur 14 Sur 0 -- -- 93
2019-01-31 10:00:00 12.8 7 Sur 16 Oeste -- -- -- 89
2019-01-31 09:00:00 11.8 7 Sur 17 Sudoeste -- -- -- 93
2019-01-31 08:00:00 12.7 9 Sudoeste 21 Sur -- -- -- 92
2019-01-31 07:00:00 11.2 6 Sur 12 Sur -- -- -- 98
2019-01-31 06:00:00 11.9 8 Sur 19 Sudoeste -- -- -- 97
2019-01-31 05:00:00 10.7 9 Sur 15 Sur -- -- -- 98
2019-01-31 04:00:00 9.6 8 Sur 19 Sudeste -- -- -- 96
2019-01-31 03:00:00 9.8 7 Sudoeste 19 Sur -- -- -- 94
2019-01-31 02:00:00 9.3 9 Sur 18 Sur -- -- -- 96
2019-01-31 01:00:00 8.9 6 Sur 11 Sur -- -- -- 96
2019-01-31 00:00:00 9 5 Sur 14 Sur -- -- -- 94
2019-01-30 23:00:00 9.1 5 Sur 17 Sur -- -- -- 92
2019-01-30 22:00:00 8.8 10 Sur 18 Sur -- -- -- 94
2019-01-30 21:00:00 8.3 8 Sur 13 Sur -- -- -- 91
2019-01-30 20:00:00 8.7 3 Sur 14 Sur -- -- -- 89
2019-01-30 19:00:00 9.3 3 Sur 8 Oeste -- -- -- 83
2019-01-30 18:00:00 10.5 3 Oeste 6 Nordeste -- -- -- 70
2019-01-30 17:00:00 11.3 4 Nordeste 6 Nordeste -- -- -- 64
2019-01-30 16:00:00 11.8 4 Nordeste 6 Nordeste 0 -- -- 58
2019-01-30 15:00:00 11.8 4 Noroeste 9 Noroeste 0 -- -- 54
2019-01-30 14:00:00 11.5 5 Noroeste 20 Noroeste 0 -- -- 56
2019-01-30 13:00:00 11.3 11 Oeste 27 Sudoeste 0 -- -- 57
2019-01-30 12:00:00 10.9 10 Oeste 28 Oeste 0 -- -- 64
2019-01-30 11:00:00 9.4 7 Sudoeste 20 Sudoeste 0 -- -- 77
2019-01-30 10:00:00 6.9 6 Sudoeste 26 Oeste -- -- -- 91
2019-01-30 09:00:00 6.6 10 Oeste 42 Noroeste -- -- -- 90
2019-01-30 08:00:00 6.7 15 Oeste 33 Noroeste -- -- -- 90
2019-01-30 07:00:00 7.2 17 Oeste 43 Oeste -- -- -- 87
2019-01-30 06:00:00 7.2 9 Sudoeste 31 Oeste -- -- -- 89
2019-01-30 05:00:00 7.2 13 Oeste 37 Oeste -- -- -- 90
2019-01-30 04:00:00 7.1 13 Sudoeste 25 Oeste -- -- -- 90
2019-01-30 03:00:00 6.9 16 Oeste 30 Oeste -- -- -- 91
2019-01-30 02:00:00 6 18 Noroeste 43 Noroeste -- -- -- 90
2019-01-30 01:00:00 7 8 Oeste 27 Oeste -- -- -- 90
2019-01-30 00:00:00 7.2 21 Noroeste 44 Oeste -- -- -- 87
2019-01-29 23:00:00 7 12 Noroeste 49 Oeste -- -- -- 91
2019-01-29 22:00:00 7.4 19 Noroeste 58 Noroeste -- -- -- 84
2019-01-29 21:00:00 9.4 26 Noroeste 62 Oeste -- -- -- 76
2019-01-29 20:00:00 10 25 Noroeste 57 Oeste -- -- -- 70
2019-01-29 19:00:00 9.1 18 Oeste 59 Oeste -- -- -- 86
2019-01-29 18:00:00 9.7 23 Oeste 66 Noroeste -- -- -- 82
2019-01-29 17:00:00 10.4 26 Noroeste 75 Oeste -- -- -- 84
2019-01-29 16:00:00 10.8 26 Noroeste 59 Noroeste -- -- -- 83
2019-01-29 15:00:00 11.9 26 Oeste 53 Noroeste -- -- -- 85
2019-01-29 14:00:00 11 12 Noroeste 35 Sudoeste -- -- -- 86
2019-01-29 13:00:00 10.9 13 Sudoeste 28 Sudoeste -- -- -- 84
2019-01-29 12:00:00 10.5 9 Sur 15 Sur -- -- -- 90
2019-01-29 11:00:00 9.4 9 Sur 15 Sudeste 0 -- -- 91
2019-01-29 10:00:00 8.2 9 Sur 17 Sur 0 -- -- 95
2019-01-29 09:00:00 8.1 8 Sur 13 Sur 0 -- -- 94
2019-01-29 08:00:00 8.4 6 Sur 10 Sudoeste 0 -- -- 90
2019-01-29 07:00:00 9.2 5 Sur 13 Sudoeste 0 -- -- 81
2019-01-29 06:00:00 9.9 5 Sudoeste 20 Oeste 0 -- -- 75
2019-01-29 05:00:00 9.8 7 Sudoeste 22 Oeste 0 -- -- 77
2019-01-29 04:00:00 9.5 10 Oeste 22 Oeste 0 -- -- 80
2019-01-29 03:00:00 9.1 8 Oeste 23 Noroeste 0 -- -- 86
2019-01-29 02:00:00 8.9 6 Oeste 17 Oeste 0 -- -- 93
2019-01-29 01:00:00 9.2 9 Oeste 19 Oeste 0 -- -- 88
2019-01-29 00:00:00 9.1 6 Oeste 24 Oeste 0 -- -- 89
2019-01-28 23:00:00 9.4 11 Noroeste 43 Oeste 0 -- -- 87
2019-01-28 22:00:00 10.4 16 Noroeste 29 Noroeste 0 -- -- 78
2019-01-28 21:00:00 9.9 17 Noroeste 35 Noroeste 0 -- -- 83
2019-01-28 20:00:00 9.7 16 Noroeste 52 Norte 0.4 -- -- 92
2019-01-28 19:00:00 10.3 17 Noroeste 31 Noroeste 0 -- -- 88
2019-01-28 18:00:00 10.7 15 Noroeste 42 Norte 0 -- -- 77
2019-01-28 17:00:00 10.7 21 Noroeste 51 Noroeste 0 -- -- 75
2019-01-28 16:00:00 11.3 26 Noroeste 50 Oeste 0 -- -- 74
2019-01-28 15:00:00 10.6 14 Noroeste 53 Noroeste 0.2 -- -- 86
2019-01-28 14:00:00 10.7 18 Noroeste 45 Noroeste 0 -- -- 79
2019-01-28 13:00:00 11.3 21 Noroeste 64 Noroeste 0 -- -- 77
2019-01-28 12:00:00 11.8 24 Noroeste 60 Noroeste 0 -- -- 74
2019-01-28 11:00:00 11.1 22 Noroeste 51 Noroeste 0 -- -- 79
2019-01-28 10:00:00 10.5 20 Noroeste 42 Noroeste 0.2 -- -- 92
2019-01-28 09:00:00 10.3 24 Noroeste 55 Noroeste 0.2 -- -- 90
2019-01-28 08:00:00 10.5 22 Noroeste 52 Noroeste 0.4 -- -- 92
2019-01-28 07:00:00 10.9 24 Oeste 64 Oeste 0.2 -- -- 90
2019-01-28 06:00:00 11.1 23 Oeste 63 Oeste 0 -- -- 86
2019-01-28 05:00:00 10.2 23 Oeste 54 Noroeste 0.2 -- -- 92
2019-01-28 04:00:00 9.5 19 Oeste 47 Oeste 0.2 -- -- 92
2019-01-28 03:00:00 8.7 15 Oeste 36 Sudoeste 0 -- -- 87
2019-01-28 02:00:00 8.3 11 Oeste 29 Oeste 0 -- -- 86
2019-01-28 01:00:00 8.3 11 Oeste 39 Oeste 0.2 -- -- 89
2019-01-28 00:00:00 8.2 14 Oeste 33 Oeste 0.2 -- -- 89
2019-01-27 23:00:00 8.2 17 Oeste 45 Oeste 0.6 -- -- 90
2019-01-27 22:00:00 8.7 13 Oeste 30 Noroeste 0.2 -- -- 88
2019-01-27 21:00:00 9 27 Noroeste 53 Oeste 0.2 -- -- 83
2019-01-27 20:00:00 9.1 17 Noroeste 59 Noroeste 0 -- -- 82
2019-01-27 19:00:00 10.2 15 Oeste 40 Oeste 0 -- -- 75
2019-01-27 18:00:00 10.2 21 Noroeste 45 Noroeste 0 -- -- 69
2019-01-27 17:00:00 10.6 19 Noroeste 42 Oeste 0 -- -- 70
2019-01-27 16:00:00 10.9 16 Noroeste 50 Noroeste 0 -- -- 68
2019-01-27 15:00:00 9.9 19 Noroeste 66 Norte 0.2 -- -- 80
2019-01-27 14:00:00 11.1 25 Noroeste 57 Noroeste 0 -- -- 71
2019-01-27 13:00:00 10.6 19 Noroeste 48 Noroeste 0 -- -- 77
2019-01-27 12:00:00 10.3 27 Noroeste 59 Noroeste 0.2 -- -- 75
2019-01-27 11:00:00 9.8 21 Oeste 43 Noroeste 0.2 -- -- 84
2019-01-27 10:00:00 8.4 17 Oeste 52 Oeste 0.2 -- -- 88
2019-01-27 09:00:00 7.6 20 Oeste 65 Noroeste 1 -- -- 91
2019-01-27 08:00:00 9.6 24 Oeste 52 Oeste 0 -- -- 79
2019-01-27 07:00:00 9.3 22 Oeste 45 Oeste 0.2 -- -- 83
2019-01-27 06:00:00 9.4 28 Oeste 58 Oeste 0.2 -- -- 82
2019-01-27 05:00:00 9.8 30 Oeste 67 Oeste 0.4 -- -- 86
2019-01-27 04:00:00 10.5 19 Oeste 50 Oeste 0.2 -- -- 90
2019-01-27 03:00:00 10.6 12 Oeste 30 Oeste 0 -- -- 92
2019-01-27 02:00:00 9 6 Sur 15 Sur 0 -- -- 92
2019-01-27 01:00:00 8.1 6 Sur 14 Sur 0 -- -- 91
2019-01-27 00:00:00 10.3 9 Sur 19 Sur 0 -- -- 83
2019-01-26 23:00:00 9.8 8 Sudoeste 14 Sudoeste 0 -- -- 87
2019-01-26 22:00:00 8.8 7 Sur 15 Sudoeste 0 -- -- 90
2019-01-26 21:00:00 9.2 7 Sur 13 Sur 0 -- -- 88
2019-01-26 20:00:00 9.3 4 Sudoeste 12 Sudoeste 0 -- -- 88
2019-01-26 19:00:00 10.4 2 Sudoeste 17 Noroeste 0 -- -- 84
2019-01-26 18:00:00 10.9 11 Noroeste 17 Noroeste 0 -- -- 81
2019-01-26 17:00:00 12.5 9 Noroeste 15 Nordeste 0 -- -- 71
2019-01-26 16:00:00 13.5 5 Nordeste 11 Este 0 -- -- 68
2019-01-26 15:00:00 13.5 5 Nordeste 12 Nordeste 0 -- -- 69
2019-01-26 14:00:00 13.5 7 Nordeste 14 Nordeste 0 -- -- 71
2019-01-26 13:00:00 13.5 3 Sudeste 8 Sudeste 0 -- -- 66
2019-01-26 12:00:00 11.5 6 Sudeste 15 Sudeste 0 -- -- 79
2019-01-26 11:00:00 10 10 Sudeste 16 Sudeste 0 -- -- 85
2019-01-26 10:00:00 8.6 5 Sur 14 Sur 0 -- -- 95
2019-01-26 09:00:00 8.3 7 Sur 13 Sudeste 0 -- -- 95
2019-01-26 08:00:00 8.9 6 Sur 10 Sur 0 -- -- 95
2019-01-26 07:00:00 9.3 6 Sur 11 Sudeste 0 -- -- 95
2019-01-26 06:00:00 9.5 7 Este 12 Sudeste 0 -- -- 95
2019-01-26 05:00:00 9.7 4 Sudeste 10 Sudeste 0 -- -- 93
2019-01-26 04:00:00 10 4 Sur 9 Sudeste 0 -- -- 92
2019-01-26 03:00:00 10.4 3 Sur 15 Sudoeste 0 -- -- 89
2019-01-26 02:00:00 10.9 6 Sudoeste 12 Oeste 0 -- -- 86
2019-01-26 01:00:00 10.9 0 Calma 14 Sudoeste 0 -- -- 87
2019-01-26 00:00:00 10.9 5 Oeste 21 Oeste 0 -- -- 88
2019-01-25 23:00:00 10.8 4 Noroeste 15 Noroeste 0 -- -- 89
2019-01-25 22:00:00 10.8 6 Oeste 16 Oeste 0 -- -- 90
2019-01-25 21:00:00 11 10 Oeste 18 Oeste 0 -- -- 90
2019-01-25 20:00:00 11.1 6 Oeste 18 Noroeste 0 -- -- 90
2019-01-25 19:00:00 11.3 8 Oeste 20 Oeste 0 -- -- 89
2019-01-25 18:00:00 11.7 9 Oeste 24 Oeste 0 -- -- 84
2019-01-25 17:00:00 11.9 11 Oeste 23 Noroeste 0 -- -- 83
2019-01-25 16:00:00 12.2 12 Oeste 27 Noroeste 0 -- -- 85
2019-01-25 15:00:00 12.4 10 Oeste 32 Noroeste 0 -- -- 88
2019-01-25 14:00:00 11.7 14 Oeste 30 Noroeste 0.2 -- -- 90
2019-01-25 13:00:00 11.9 18 Oeste 30 Oeste 0 -- -- 89
2019-01-25 12:00:00 11.4 13 Oeste 30 Noroeste 0 -- -- 91
2019-01-25 11:00:00 11.5 17 Oeste 34 Oeste 0 -- -- 91
2019-01-25 10:00:00 11 14 Noroeste 39 Noroeste 0.4 -- -- 91
2019-01-25 09:00:00 10.7 17 Noroeste 36 Noroeste 0.6 -- -- 94
2019-01-25 08:00:00 11.2 9 Noroeste 26 Oeste 0 -- -- 93
2019-01-25 07:00:00 10.9 11 Noroeste 29 Noroeste 0.4 -- -- 96
2019-01-25 06:00:00 11.2 11 Noroeste 28 Noroeste 0 -- -- 96
2019-01-25 05:00:00 11.5 15 Noroeste 35 Oeste 0 -- -- 93
2019-01-25 04:00:00 11.5 10 Noroeste 25 Noroeste 0 -- -- 92
2019-01-25 03:00:00 11.3 13 Noroeste 32 Noroeste 0 -- -- 95
2019-01-25 02:00:00 11.3 14 Noroeste 43 Oeste 0.4 -- -- 96
2019-01-25 01:00:00 11.3 17 Noroeste 31 Noroeste 0.2 -- -- 94
2019-01-25 00:00:00 11.5 12 Noroeste 27 Noroeste 0 -- -- 97
2019-01-24 23:00:00 11.4 15 Noroeste 31 Oeste 0.2 -- -- 100
2019-01-24 22:00:00 9.5 0 Calma 4 Este 0.4 -- -- 100
2019-01-24 21:00:00 9.4 2 Sudeste 5 Sur 0 -- -- 100
2019-01-24 20:00:00 9.2 0 Calma 4 Norte 0 -- -- 100
2019-01-24 19:00:00 9.2 3 Nordeste 5 Nordeste 0 -- -- 100
2019-01-24 18:00:00 9.1 3 Este 6 Nordeste 0.8 -- -- 100
2019-01-24 17:00:00 9.2 0 Calma 4 Este 0.6 -- -- 100
2019-01-24 16:00:00 9.2 2 Sur 4 Nordeste 1 -- -- 100
2019-01-24 15:00:00 9.1 3 Sur 5 Sur 0.8 -- -- 99
2019-01-24 14:00:00 9 0 Calma 3 Sudoeste 1.2 -- -- 100
2019-01-24 13:00:00 8.7 0 Calma 4 Este 2.2 -- -- 100
2019-01-24 12:00:00 8.7 2 Norte 10 Nordeste 2.2 -- -- 100
2019-01-24 11:00:00 8.5 10 Nordeste 19 Nordeste 3.6 -- -- 100
2019-01-24 10:00:00 8.9 9 Nordeste 14 Nordeste 1.8 -- -- 100
2019-01-24 09:00:00 8.9 8 Nordeste 24 Nordeste 3.6 -- -- 100
2019-01-24 08:00:00 9.3 7 Norte 13 Norte 2.2 -- -- 99
2019-01-24 07:00:00 9.2 6 Noroeste 17 Norte 1.4 -- -- 99
2019-01-24 06:00:00 9.2 6 Noroeste 17 Noroeste 2 -- -- 99
2019-01-24 05:00:00 9.1 8 Noroeste 19 Noroeste 1 -- -- 98
2019-01-24 04:00:00 9.4 10 Noroeste 24 Noroeste 0.8 -- -- 97
2019-01-24 03:00:00 9.5 10 Norte 28 Noroeste 0.2 -- -- 95
2019-01-24 02:00:00 9.4 12 Norte 23 Noroeste 1 -- -- 97
2019-01-24 01:00:00 9.2 12 Norte 31 Norte 2.4 -- -- 97
2019-01-24 00:00:00 9.8 14 Norte 36 Noroeste -- -- -- 95